createdAt,value
2023-01-23T00:02:21.743Z,102190.51
2023-01-23T00:05:48.934Z,102190.16
2023-01-23T00:09:15.711Z,102197.59
2023-01-23T00:12:43.048Z,102206.88
2023-01-23T00:22:43.467Z,102209.45
2023-01-23T00:26:02.490Z,102215.11
2023-01-23T00:29:18.141Z,102222.91
2023-01-23T00:32:31.494Z,102228.31
2023-01-23T00:35:58.732Z,102228.48
2023-01-23T00:46:16.832Z,102226.71
2023-01-23T00:49:30.220Z,102230.65
2023-01-23T00:52:59.810Z,102231.64
2023-01-23T01:02:24.690Z,102226.77
2023-01-23T01:05:53.033Z,102229.34
2023-01-23T01:09:29.656Z,102227.63
2023-01-23T01:18:35.213Z,102223.31
2023-01-23T01:22:12.710Z,102224.36
2023-01-23T01:25:41.043Z,102229.75
2023-01-23T01:28:47.207Z,102230.93
2023-01-23T01:35:54.641Z,102230.65
2023-01-23T01:42:45.798Z,102230.89
2023-01-23T01:46:30.171Z,102232.01
2023-01-23T01:49:59.169Z,102233.39
2023-01-23T01:56:45.660Z,102232.36
2023-01-23T02:00:14.543Z,102235.21
2023-01-23T02:03:28.746Z,102239.70
2023-01-23T02:10:04.942Z,102245.05
2023-01-23T02:13:26.104Z,102247.26
2023-01-23T02:26:56.439Z,102266.29
2023-01-23T02:33:34.409Z,102264.36
2023-01-23T02:36:53.458Z,102261.46
2023-01-23T02:40:26.160Z,102255.77
2023-01-23T02:43:52.808Z,102252.61
2023-01-23T02:47:05.925Z,102252.23
2023-01-23T02:50:42.919Z,102247.84
2023-01-23T02:54:01.508Z,102242.89
2023-01-23T02:57:28.682Z,102248.95
2023-01-23T03:00:55.928Z,102248.09
2023-01-23T03:13:33.958Z,102252.53
2023-01-23T03:17:04.003Z,102253.08
2023-01-23T03:20:45.607Z,102242.35
2023-01-23T03:27:26.812Z,102244.59
2023-01-23T03:34:16.203Z,102257.35
2023-01-23T03:37:53.755Z,102258.81
2023-01-23T03:44:45.937Z,102271.66
2023-01-23T03:48:11.176Z,102269.65
2023-01-23T03:54:48.177Z,102274.45
2023-01-23T03:58:13.084Z,102278.12
2023-01-23T04:01:43.029Z,102284.80
2023-01-23T04:05:09.046Z,102286.66
2023-01-23T04:12:02.656Z,102297.66
2023-01-23T04:15:29.786Z,102304.38
2023-01-23T04:18:57.118Z,102307.98
2023-01-23T04:22:33.723Z,102315.71
2023-01-23T04:25:44.209Z,102317.80
2023-01-23T04:36:27.984Z,102317.69
2023-01-23T04:40:24.931Z,102318.04
2023-01-23T04:43:55.836Z,102330.25
2023-01-23T04:52:01.423Z,102334.90
2023-01-23T04:55:13.071Z,102336.90
2023-01-23T05:02:40.702Z,102341.48
2023-01-23T05:06:11.875Z,102347.76
2023-01-23T05:09:38.324Z,102343.97
2023-01-23T05:31:21.815Z,102355.42
2023-01-23T05:34:58.517Z,102360.44
2023-01-23T05:38:31.531Z,102361.85
2023-01-23T05:42:22.638Z,102372.49
2023-01-23T05:45:56.190Z,102374.77
2023-01-23T05:49:08.906Z,102380.02
2023-01-23T05:56:49.938Z,102396.17
2023-01-23T06:00:20.806Z,102398.63
2023-01-23T06:03:59.329Z,102399.67
2023-01-23T06:11:20.388Z,102402.96
2023-01-23T06:15:09.094Z,102413.11
2023-01-23T06:18:47.012Z,102416.21
2023-01-23T06:22:34.582Z,102415.42
2023-01-23T06:29:18.130Z,102427.70
2023-01-23T06:36:08.005Z,102426.84
2023-01-23T06:39:33.687Z,102426.95
2023-01-23T06:45:58.245Z,102440.14
2023-01-23T06:49:27.915Z,102447.72
2023-01-23T06:56:24.710Z,102459.80
2023-01-23T06:59:54.520Z,102469.92
2023-01-23T07:03:20.802Z,102476.14
2023-01-23T07:13:30.009Z,102481.41
2023-01-23T07:17:22.266Z,102481.35
2023-01-23T07:20:53.625Z,102481.73
2023-01-23T07:23:52.894Z,102480.68
2023-01-23T07:27:38.984Z,102477.92
2023-01-23T07:31:14.024Z,102473.88
2023-01-23T07:41:44.800Z,102470.43
2023-01-23T07:45:02.634Z,102466.59
2023-01-23T07:48:40.935Z,102464.30
2023-01-23T07:52:25.990Z,102472.20
2023-01-23T07:59:28.811Z,102466.42
2023-01-23T08:02:45.063Z,102468.03
2023-01-23T08:09:27.411Z,102478.67
2023-01-23T08:12:54.901Z,102485.92
2023-01-23T08:19:46.738Z,102493.10
2023-01-23T08:23:22.582Z,102489.95
2023-01-23T08:26:49.727Z,102490.42
2023-01-23T08:30:26.036Z,102489.96
2023-01-23T08:34:16.909Z,102500.38
2023-01-23T08:37:41.839Z,102503.61
2023-01-23T08:44:40.880Z,102517.20
2023-01-23T08:48:27.916Z,102512.48
2023-01-23T08:51:56.951Z,102518.52
